Time;durP1;ratioP1;P1;durP2;ratioP2;P2;SDS_P1;SDS_P2;PMS_P1;PMS_P2;Temp;Humidity;BMP_temperature;BMP_pressure;BME280_temperature;BME280_humidity;BME280_pressure;Samples;Min_cycle;Max_cycle;Signal;HPM_P1;HPM_P2
2021/05/21 00:01:41;;;;;;;8.63;3.70;;;12.60;99.90;;;;;;5052638;28;20923;-88
2021/05/21 00:04:08;;;;;;;7.33;3.70;;;12.60;99.90;;;;;;5033949;28;20429;-88
2021/05/21 00:06:35;;;;;;;7.40;3.63;;;12.70;99.90;;;;;;5051863;28;20392;-88
2021/05/21 00:09:03;;;;;;;10.18;4.15;;;12.80;99.90;;;;;;5052204;28;20368;-89
2021/05/21 00:11:30;;;;;;;7.00;3.70;;;12.80;99.90;;;;;;5036099;28;20482;-87
2021/05/21 00:13:57;;;;;;;10.55;3.95;;;12.90;99.90;;;;;;5052754;28;20380;-88
2021/05/21 00:16:24;;;;;;;8.27;3.85;;;12.90;99.90;;;;;;5051342;28;20375;-87
2021/05/21 00:18:51;;;;;;;11.65;4.07;;;12.90;99.90;;;;;;5051016;28;20380;-87
2021/05/21 00:21:19;;;;;;;9.73;3.60;;;13.00;99.90;;;;;;5051888;28;20398;-87
2021/05/21 00:23:46;;;;;;;11.02;3.83;;;13.10;99.90;;;;;;5039470;28;20380;-87
2021/05/21 00:26:13;;;;;;;8.57;3.55;;;13.20;99.90;;;;;;5052257;28;20383;-86
2021/05/21 00:28:40;;;;;;;9.70;4.00;;;13.30;99.90;;;;;;5052544;28;20380;-87
2021/05/21 00:31:07;;;;;;;6.40;3.60;;;13.40;99.90;;;;;;5027168;28;20394;-88
2021/05/21 00:33:34;;;;;;;11.38;3.60;;;13.60;99.90;;;;;;5022382;28;20392;-86
2021/05/21 00:36:01;;;;;;;12.30;4.00;;;13.90;99.90;;;;;;5024326;28;20384;-87
2021/05/21 00:38:28;;;;;;;9.13;3.80;;;14.10;99.90;;;;;;5034553;28;20429;-88
2021/05/21 00:40:55;;;;;;;9.57;3.53;;;14.50;99.90;;;;;;5032934;28;20406;-87
2021/05/21 00:43:22;;;;;;;6.60;3.73;;;14.60;99.90;;;;;;5033999;28;20477;-87
2021/05/21 00:45:49;;;;;;;8.68;3.15;;;14.70;99.90;;;;;;5048888;28;20404;-88
2021/05/21 00:48:16;;;;;;;8.43;3.60;;;14.70;99.90;;;;;;5047227;28;20751;-87
2021/05/21 00:50:43;;;;;;;11.10;3.97;;;14.60;99.90;;;;;;5033536;28;20418;-88
2021/05/21 00:53:12;;;;;;;11.20;3.57;;;14.50;99.90;;;;;;5050013;28;21307;-89
2021/05/21 00:55:39;;;;;;;7.50;3.55;;;14.40;99.90;;;;;;5034459;28;20467;-90
2021/05/21 00:58:06;;;;;;;8.70;3.28;;;14.30;99.90;;;;;;5051628;28;20383;-89
2021/05/21 01:00:34;;;;;;;10.00;3.80;;;14.40;99.90;;;;;;5037356;28;20446;-88
2021/05/21 01:03:01;;;;;;;11.60;4.15;;;14.50;99.90;;;;;;5039368;28;20462;-88
2021/05/21 01:05:28;;;;;;;8.05;3.88;;;14.60;99.90;;;;;;5035812;28;20387;-89
2021/05/21 01:07:55;;;;;;;10.53;3.40;;;14.80;99.90;;;;;;5032318;28;20465;-88
2021/05/21 01:10:22;;;;;;;8.50;3.47;;;14.90;99.90;;;;;;5051213;28;20402;-86
2021/05/21 01:12:49;;;;;;;8.45;3.53;;;15.00;99.90;;;;;;5050657;28;20418;-88
2021/05/21 01:15:16;;;;;;;9.13;3.47;;;15.00;99.90;;;;;;5030548;28;20894;-88
2021/05/21 01:17:44;;;;;;;7.88;3.40;;;15.00;99.90;;;;;;5049350;28;20381;-88
2021/05/21 01:20:13;;;;;;;6.20;2.90;;;15.10;99.90;;;;;;5053869;28;20433;-87
2021/05/21 01:22:40;;;;;;;9.03;3.17;;;15.30;99.90;;;;;;5036663;28;20398;-86
2021/05/21 01:25:08;;;;;;;8.98;3.20;;;15.30;99.90;;;;;;5036024;28;20395;-87
2021/05/21 01:27:35;;;;;;;8.25;3.17;;;15.20;99.90;;;;;;5031230;28;20391;-87
2021/05/21 01:30:05;;;;;;;9.25;3.40;;;15.10;99.90;;;;;;5054479;28;20395;-89
2021/05/21 01:32:32;;;;;;;8.70;3.45;;;15.10;99.90;;;;;;5053154;28;20470;-85
2021/05/21 01:35:00;;;;;;;8.95;3.00;;;15.20;99.90;;;;;;5053058;28;20391;-88
2021/05/21 01:37:27;;;;;;;10.75;3.30;;;15.40;99.90;;;;;;5036135;28;20380;-90
2021/05/21 01:39:55;;;;;;;10.37;3.37;;;15.60;99.90;;;;;;5045209;28;20416;-88
2021/05/21 01:42:22;;;;;;;10.40;3.30;;;15.60;99.90;;;;;;5030736;28;20385;-89
2021/05/21 01:44:54;;;;;;;12.40;3.30;;;15.60;99.90;;;;;;5031644;28;20480;-84
2021/05/21 01:47:21;;;;;;;9.25;3.13;;;15.40;99.90;;;;;;5032557;28;20388;-87
2021/05/21 01:49:48;;;;;;;14.73;4.13;;;15.40;99.90;;;;;;5050276;28;20771;-84
2021/05/21 01:52:15;;;;;;;9.32;3.10;;;15.30;99.90;;;;;;5052442;28;20830;-87
2021/05/21 01:54:42;;;;;;;9.95;3.30;;;15.10;99.90;;;;;;5050531;28;20441;-85
2021/05/21 01:57:09;;;;;;;10.70;3.30;;;15.00;99.90;;;;;;5049409;28;21567;-85
2021/05/21 01:59:36;;;;;;;11.75;3.30;;;15.00;99.90;;;;;;5049490;28;20770;-85
2021/05/21 02:02:06;;;;;;;10.70;3.10;;;14.90;99.90;;;;;;5031830;28;20896;-85
2021/05/21 02:04:35;;;;;;;9.23;3.63;;;14.90;99.90;;;;;;5031818;28;20449;-84
2021/05/21 02:07:03;;;;;;;11.93;3.63;;;14.80;99.90;;;;;;5041592;28;20396;-85
2021/05/21 02:09:44;;;;;;;12.07;3.80;;;14.80;99.90;;;;;;5031801;28;21925;-85
2021/05/21 02:12:11;;;;;;;13.70;3.80;;;14.80;99.90;;;;;;5045982;28;20387;-84
2021/05/21 02:14:38;;;;;;;15.00;3.67;;;14.80;99.90;;;;;;5051155;28;20392;-85
2021/05/21 02:17:05;;;;;;;11.68;4.30;;;14.80;99.90;;;;;;5029428;28;20488;-84
2021/05/21 02:19:32;;;;;;;11.30;4.30;;;14.70;99.90;;;;;;5032892;28;20396;-85
2021/05/21 02:22:01;;;;;;;15.63;4.47;;;14.60;99.90;;;;;;5049667;28;20445;-85
2021/05/21 02:24:29;;;;;;;15.40;4.70;;;14.60;99.90;;;;;;5032426;28;20748;-84
2021/05/21 02:26:56;;;;;;;15.20;4.88;;;14.50;99.90;;;;;;5046972;28;20423;-84
2021/05/21 02:29:23;;;;;;;10.52;4.50;;;14.50;99.90;;;;;;5049214;28;20407;-84
2021/05/21 02:31:50;;;;;;;13.18;5.13;;;14.50;99.90;;;;;;5024896;28;20403;-84
2021/05/21 02:34:17;;;;;;;15.13;4.72;;;14.40;99.90;;;;;;5023699;28;20403;-85
2021/05/21 02:36:44;;;;;;;18.85;5.75;;;14.30;99.90;;;;;;5042846;28;20395;-86
2021/05/21 02:39:11;;;;;;;15.10;5.43;;;14.30;99.90;;;;;;5026643;28;20454;-85
2021/05/21 02:41:38;;;;;;;15.15;5.07;;;14.30;99.90;;;;;;5027700;28;20411;-84
2021/05/21 02:44:05;;;;;;;15.85;5.63;;;14.20;99.90;;;;;;5041376;28;20407;-85
2021/05/21 02:46:32;;;;;;;12.40;4.40;;;14.30;99.90;;;;;;5042229;28;20492;-84
2021/05/21 02:48:59;;;;;;;14.23;4.37;;;14.40;99.90;;;;;;5018718;28;20881;-86
2021/05/21 02:51:26;;;;;;;14.18;4.55;;;14.30;99.90;;;;;;5049129;28;20434;-86
2021/05/21 02:53:53;;;;;;;17.33;4.65;;;14.30;99.90;;;;;;5044026;28;20401;-87
2021/05/21 02:56:21;;;;;;;12.73;3.92;;;14.20;99.90;;;;;;5054254;28;20495;-85
2021/05/21 02:58:47;;;;;;;14.80;4.13;;;14.20;99.90;;;;;;5032287;28;20400;-85
2021/05/21 03:01:15;;;;;;;16.50;4.40;;;14.20;99.90;;;;;;5050938;28;20407;-86
2021/05/21 03:03:42;;;;;;;17.25;4.28;;;14.10;99.90;;;;;;5035046;28;20388;-85
2021/05/21 03:06:09;;;;;;;16.10;4.65;;;14.10;99.90;;;;;;5040517;28;20401;-88
2021/05/21 03:08:36;;;;;;;15.18;4.35;;;14.00;99.90;;;;;;5049442;28;20404;-88
2021/05/21 03:11:03;;;;;;;13.32;4.10;;;14.00;99.90;;;;;;5052268;28;20461;-86
2021/05/21 03:13:30;;;;;;;16.35;4.78;;;14.00;99.90;;;;;;5031160;28;20400;-88
2021/05/21 03:15:57;;;;;;;15.65;4.53;;;14.10;99.90;;;;;;5022036;28;20385;-88
2021/05/21 03:18:24;;;;;;;17.70;5.10;;;14.20;99.90;;;;;;5026659;28;20506;-87
2021/05/21 03:20:52;;;;;;;21.90;4.82;;;14.20;99.90;;;;;;5014703;28;20397;-88
2021/05/21 03:23:19;;;;;;;20.27;4.93;;;14.10;99.90;;;;;;5014160;28;20386;-89
2021/05/21 03:25:46;;;;;;;16.63;4.65;;;14.00;99.90;;;;;;5032283;28;20380;-87
2021/05/21 03:28:15;;;;;;;18.17;4.70;;;14.00;99.90;;;;;;5032771;28;20373;-89
2021/05/21 03:30:42;;;;;;;14.50;4.28;;;13.90;99.90;;;;;;5036629;28;20379;-89
2021/05/21 03:33:10;;;;;;;20.02;4.43;;;13.90;99.90;;;;;;5053485;28;20804;-90
2021/05/21 03:35:37;;;;;;;15.60;4.60;;;13.80;99.90;;;;;;5053893;28;20384;-89
2021/05/21 03:38:06;;;;;;;14.95;4.47;;;13.70;99.90;;;;;;5054425;28;20396;-90
2021/05/21 03:40:35;;;;;;;16.17;4.07;;;13.70;99.90;;;;;;5049747;28;20877;-90
2021/05/21 03:43:03;;;;;;;19.23;4.45;;;13.70;99.90;;;;;;5047331;28;20398;-89
2021/05/21 03:45:33;;;;;;;16.98;3.97;;;13.70;99.90;;;;;;5015661;28;20384;-89
2021/05/21 03:48:00;;;;;;;14.73;4.30;;;13.80;99.90;;;;;;5038393;28;20459;-88
2021/05/21 03:50:28;;;;;;;16.42;4.05;;;13.80;99.90;;;;;;5054069;28;20372;-89
2021/05/21 03:52:55;;;;;;;19.60;4.90;;;13.80;99.90;;;;;;5054401;28;20408;-88
2021/05/21 03:55:22;;;;;;;26.63;4.93;;;13.80;99.90;;;;;;5036841;28;20399;-89
2021/05/21 03:57:49;;;;;;;17.92;4.43;;;13.90;99.90;;;;;;5034286;28;20411;-89
2021/05/21 04:00:19;;;;;;;19.98;4.60;;;14.00;99.90;;;;;;5029015;28;20409;-88
2021/05/21 04:02:49;;;;;;;22.92;4.75;;;14.00;99.90;;;;;;5031064;28;20489;-89
2021/05/21 04:05:17;;;;;;;21.92;4.45;;;14.00;99.90;;;;;;5033023;28;20907;-86
2021/05/21 04:07:44;;;;;;;23.35;4.50;;;14.10;99.90;;;;;;5048282;28;20402;-91
2021/05/21 04:10:12;;;;;;;26.60;4.50;;;14.00;99.90;;;;;;5053047;28;20387;-90
2021/05/21 04:12:39;;;;;;;19.20;4.05;;;14.00;99.90;;;;;;5052677;28;20372;-91
2021/05/21 04:15:07;;;;;;;25.30;5.30;;;13.90;99.90;;;;;;5051469;28;20384;-86
2021/05/21 04:17:34;;;;;;;20.60;4.25;;;13.90;99.90;;;;;;5049419;28;20402;-87
2021/05/21 04:20:01;;;;;;;24.13;4.70;;;13.90;99.90;;;;;;5044196;28;20435;-88
2021/05/21 04:22:28;;;;;;;22.17;4.40;;;13.90;99.90;;;;;;5048779;28;20400;-85
2021/05/21 04:24:55;;;;;;;24.95;4.78;;;13.80;99.90;;;;;;5050332;28;20387;-86
2021/05/21 04:27:22;;;;;;;18.65;4.30;;;13.90;99.90;;;;;;5048354;28;20368;-86
2021/05/21 04:29:49;;;;;;;24.63;4.45;;;13.90;99.90;;;;;;5030569;28;20481;-89
2021/05/21 04:32:16;;;;;;;22.85;4.70;;;13.90;99.90;;;;;;5014975;28;20491;-89
2021/05/21 04:34:43;;;;;;;22.52;5.45;;;14.00;99.90;;;;;;5041514;28;20392;-86
2021/05/21 04:37:17;;;;;;;21.05;4.90;;;14.10;99.90;;;;;;5043769;28;20376;-86
2021/05/21 04:39:47;;;;;;;21.83;4.78;;;14.20;99.90;;;;;;5022979;28;20412;-85
2021/05/21 04:42:14;;;;;;;18.40;5.15;;;14.30;99.90;;;;;;5023300;28;20478;-85
2021/05/21 04:44:41;;;;;;;21.00;4.38;;;14.20;99.90;;;;;;5044415;28;20391;-86
2021/05/21 04:47:08;;;;;;;19.35;4.13;;;14.20;99.90;;;;;;5028644;28;21471;-88
2021/05/21 04:49:35;;;;;;;22.37;4.50;;;14.30;99.90;;;;;;5042854;28;20396;-85
2021/05/21 04:52:08;;;;;;;20.08;4.38;;;14.30;99.90;;;;;;5040747;28;20408;-86
2021/05/21 04:54:39;;;;;;;19.55;3.97;;;14.30;99.90;;;;;;5031487;28;20870;-86
2021/05/21 04:57:07;;;;;;;22.05;4.43;;;14.30;99.90;;;;;;5030505;28;20408;-88
2021/05/21 04:59:34;;;;;;;20.00;4.22;;;14.40;99.90;;;;;;5029713;28;20433;-88
2021/05/21 05:02:02;;;;;;;20.67;5.30;;;14.40;99.90;;;;;;5033021;28;20468;-88
2021/05/21 05:04:29;;;;;;;21.92;4.50;;;14.30;99.90;;;;;;5022015;28;20916;-90
2021/05/21 05:06:56;;;;;;;20.20;4.20;;;14.30;99.90;;;;;;5043131;28;20402;-87
2021/05/21 05:09:23;;;;;;;23.90;4.68;;;14.30;99.90;;;;;;5027605;28;20384;-86
2021/05/21 05:11:50;;;;;;;24.38;4.60;;;14.40;99.90;;;;;;5053130;28;20474;-86
2021/05/21 05:14:17;;;;;;;19.98;4.60;;;14.40;99.90;;;;;;5048356;28;20414;-87
2021/05/21 05:16:44;;;;;;;17.55;4.88;;;14.50;99.90;;;;;;5029817;28;20392;-86
2021/05/21 05:19:11;;;;;;;28.27;6.03;;;14.40;99.90;;;;;;5047327;28;20409;-88
2021/05/21 05:21:44;;;;;;;22.15;5.25;;;14.50;99.90;;;;;;5022963;28;20401;-88
2021/05/21 05:24:19;;;;;;;24.47;6.07;;;14.50;99.90;;;;;;5031688;28;20439;-85
2021/05/21 05:26:47;;;;;;;22.38;6.20;;;14.50;99.90;;;;;;5045234;28;20387;-88
2021/05/21 05:29:15;;;;;;;23.17;5.45;;;14.50;99.90;;;;;;5055346;28;20485;-89
2021/05/21 05:31:46;;;;;;;28.98;4.90;;;14.50;99.90;;;;;;5037364;28;20399;-89
2021/05/21 05:34:14;;;;;;;20.65;4.82;;;14.60;99.90;;;;;;5033853;28;20401;-87
2021/05/21 05:36:41;;;;;;;21.67;4.50;;;14.60;99.90;;;;;;5026282;28;20392;-88
2021/05/21 05:39:09;;;;;;;22.93;4.47;;;14.60;99.90;;;;;;5050558;28;20909;-87
2021/05/21 05:41:36;;;;;;;18.08;3.95;;;14.60;99.90;;;;;;5049049;28;20406;-88
2021/05/21 05:44:03;;;;;;;20.95;4.32;;;14.60;99.90;;;;;;5049725;28;20416;-85
2021/05/21 05:46:30;;;;;;;21.10;4.07;;;14.60;99.90;;;;;;5064858;28;20385;-85
2021/05/21 05:48:57;;;;;;;21.77;4.60;;;14.60;99.90;;;;;;5033710;28;20401;-86
2021/05/21 05:51:24;;;;;;;21.50;4.68;;;14.50;99.90;;;;;;5033986;28;20388;-85
2021/05/21 05:53:51;;;;;;;26.25;4.45;;;14.50;99.90;;;;;;5050931;28;20416;-85
2021/05/21 05:56:18;;;;;;;18.67;4.03;;;14.50;99.90;;;;;;5032466;28;20462;-84
2021/05/21 05:58:45;;;;;;;19.90;4.53;;;14.50;99.90;;;;;;5033699;28;20889;-85
2021/05/21 06:01:12;;;;;;;17.80;4.00;;;14.40;99.90;;;;;;5049009;28;20482;-84
2021/05/21 06:03:39;;;;;;;22.88;4.65;;;14.40;99.90;;;;;;5034047;28;20389;-85
2021/05/21 06:06:06;;;;;;;23.25;5.15;;;14.40;99.90;;;;;;5031526;28;20385;-85
2021/05/21 06:08:34;;;;;;;20.23;4.90;;;14.40;99.90;;;;;;5016597;28;20446;-85
2021/05/21 06:11:01;;;;;;;18.67;4.57;;;14.40;99.90;;;;;;5046843;28;20753;-86
2021/05/21 06:13:28;;;;;;;18.17;5.07;;;14.40;99.90;;;;;;5022796;28;20406;-85
2021/05/21 06:15:55;;;;;;;26.45;4.88;;;14.40;99.90;;;;;;5043050;28;20421;-85
2021/05/21 06:18:22;;;;;;;23.98;4.90;;;14.40;99.90;;;;;;5020945;28;21001;-86
2021/05/21 06:20:49;;;;;;;24.10;5.15;;;14.40;99.90;;;;;;5050046;28;20416;-87
2021/05/21 06:23:16;;;;;;;22.70;4.85;;;14.40;99.90;;;;;;5039963;28;20824;-86
2021/05/21 06:28:11;;;;;;;19.75;4.53;;;14.40;99.90;;;;;;5030402;28;20372;-86
2021/05/21 06:30:39;;;;;;;22.73;4.70;;;14.40;99.90;;;;;;5026923;28;20419;-85
2021/05/21 06:33:06;;;;;;;19.23;4.82;;;14.30;99.90;;;;;;5048366;28;20782;-85
2021/05/21 06:35:36;;;;;;;21.13;4.18;;;14.40;99.90;;;;;;5032029;28;20392;-85
2021/05/21 06:38:04;;;;;;;15.82;3.75;;;14.30;99.90;;;;;;5023690;28;20475;-87
2021/05/21 06:40:31;;;;;;;15.68;3.55;;;14.20;99.90;;;;;;5044044;28;20491;-86
2021/05/21 06:42:58;;;;;;;15.68;3.63;;;14.20;99.90;;;;;;5032842;28;20395;-85
2021/05/21 06:45:26;;;;;;;22.97;4.50;;;14.10;99.90;;;;;;5025763;28;20413;-85
2021/05/21 06:47:53;;;;;;;17.37;3.90;;;14.10;99.90;;;;;;5030773;28;20449;-84
2021/05/21 06:50:20;;;;;;;21.93;4.17;;;14.20;99.90;;;;;;5049042;28;20473;-84
2021/05/21 06:52:47;;;;;;;20.08;3.88;;;14.10;99.90;;;;;;5018191;28;20409;-86
2021/05/21 06:55:14;;;;;;;21.60;4.13;;;14.20;99.90;;;;;;5030917;28;20880;-85
2021/05/21 06:57:41;;;;;;;15.77;3.38;;;14.20;99.90;;;;;;5024328;28;20388;-86
2021/05/21 07:00:09;;;;;;;17.77;3.65;;;14.20;99.90;;;;;;5033125;28;20456;-86
2021/05/21 07:02:36;;;;;;;20.10;4.35;;;14.10;99.90;;;;;;5032857;28;20859;-85
2021/05/21 07:05:03;;;;;;;22.13;4.60;;;14.10;99.90;;;;;;5050598;28;20434;-85
2021/05/21 07:07:31;;;;;;;17.70;4.77;;;14.10;99.90;;;;;;5018998;28;20433;-85
2021/05/21 07:09:59;;;;;;;21.02;5.35;;;14.00;99.90;;;;;;5030890;28;20442;-85
2021/05/21 07:12:28;;;;;;;22.90;5.93;;;14.10;99.90;;;;;;5036445;28;20427;-85
2021/05/21 07:14:55;;;;;;;22.08;7.35;;;14.10;99.90;;;;;;5050535;28;20487;-85
2021/05/21 07:17:22;;;;;;;22.53;7.73;;;14.10;99.90;;;;;;5043686;28;20392;-86
2021/05/21 07:19:49;;;;;;;26.05;9.48;;;14.10;99.90;;;;;;5033396;28;21031;-85
2021/05/21 07:22:16;;;;;;;23.70;9.45;;;14.00;99.90;;;;;;5042082;28;20404;-85
2021/05/21 07:24:43;;;;;;;24.38;10.32;;;14.00;99.90;;;;;;5039199;28;20387;-87
2021/05/21 07:27:10;;;;;;;23.90;7.72;;;14.00;99.90;;;;;;5046587;28;20410;-87
2021/05/21 07:29:37;;;;;;;19.10;6.45;;;14.10;99.90;;;;;;5043360;28;20883;-86
2021/05/21 07:32:04;;;;;;;15.60;5.73;;;14.00;99.90;;;;;;5032025;28;20423;-85
2021/05/21 07:34:32;;;;;;;25.33;11.75;;;13.90;99.90;;;;;;5046694;28;20431;-86
2021/05/21 07:36:59;;;;;;;26.77;11.15;;;13.90;99.90;;;;;;5016566;28;20464;-86
2021/05/21 07:39:26;;;;;;;23.77;7.20;;;13.90;99.90;;;;;;5029998;28;20506;-87
2021/05/21 07:41:55;;;;;;;26.83;9.40;;;13.90;99.90;;;;;;5031811;28;20384;-87
2021/05/21 07:44:22;;;;;;;25.95;8.00;;;13.90;99.90;;;;;;5030880;28;20388;-86
2021/05/21 07:46:51;;;;;;;23.15;5.78;;;13.90;99.90;;;;;;5049839;28;20463;-85
2021/05/21 07:49:22;;;;;;;19.80;6.05;;;13.90;99.90;;;;;;5026737;28;20436;-87
2021/05/21 07:51:53;;;;;;;16.27;5.07;;;13.80;99.90;;;;;;5032800;28;20376;-88
2021/05/21 07:54:21;;;;;;;19.33;5.80;;;13.80;99.90;;;;;;5050603;28;20383;-86
2021/05/21 07:56:49;;;;;;;16.60;4.30;;;13.80;99.90;;;;;;5048169;28;20491;-87
2021/05/21 07:59:16;;;;;;;14.70;3.88;;;13.80;99.90;;;;;;5028219;28;20811;-84
2021/05/21 08:01:43;;;;;;;17.52;3.95;;;13.80;99.90;;;;;;5042851;28;20925;-86
2021/05/21 08:04:11;;;;;;;14.63;3.70;;;13.70;99.90;;;;;;5046876;28;20491;-85
2021/05/21 08:06:41;;;;;;;17.48;3.85;;;13.80;99.90;;;;;;5028972;28;20735;-86
2021/05/21 08:09:09;;;;;;;18.03;4.07;;;13.70;99.90;;;;;;5049864;28;20430;-86
2021/05/21 08:11:36;;;;;;;10.63;3.28;;;13.70;99.90;;;;;;5048958;28;20519;-85
2021/05/21 08:14:04;;;;;;;18.63;4.57;;;13.70;99.90;;;;;;5031356;28;20425;-87
2021/05/21 08:16:31;;;;;;;18.17;4.90;;;13.70;99.90;;;;;;5050067;28;20403;-86
2021/05/21 08:18:59;;;;;;;18.05;4.57;;;13.70;99.90;;;;;;5050211;28;20412;-87
2021/05/21 08:21:26;;;;;;;15.07;3.60;;;13.70;99.90;;;;;;5049733;28;20404;-87
2021/05/21 08:23:55;;;;;;;19.02;4.70;;;13.70;99.90;;;;;;5028687;28;20391;-84
2021/05/21 08:26:25;;;;;;;16.77;4.60;;;13.80;99.90;;;;;;5031615;28;20405;-89
2021/05/21 08:28:57;;;;;;;15.90;4.37;;;13.70;99.90;;;;;;5044664;28;20467;-88
2021/05/21 08:31:25;;;;;;;15.55;4.90;;;13.70;99.90;;;;;;5029636;28;20491;-87
2021/05/21 08:33:52;;;;;;;16.67;5.07;;;13.60;99.90;;;;;;5032319;28;20375;-89
2021/05/21 08:36:22;;;;;;;18.70;5.43;;;13.60;99.90;;;;;;5031486;28;20728;-90
2021/05/21 08:38:51;;;;;;;15.23;4.63;;;13.60;99.90;;;;;;5050018;28;20379;-88
2021/05/21 08:41:29;;;;;;;17.60;4.43;;;13.60;99.90;;;;;;5042381;28;20808;-88
2021/05/21 08:43:57;;;;;;;13.10;4.20;;;13.60;99.90;;;;;;5046163;28;20473;-88
2021/05/21 08:46:27;;;;;;;16.88;5.07;;;13.50;99.90;;;;;;5013659;28;20414;-88
2021/05/21 08:49:01;;;;;;;19.85;5.57;;;13.50;99.90;;;;;;5028224;28;20444;-89
2021/05/21 08:51:29;;;;;;;17.20;5.50;;;13.50;99.90;;;;;;5031977;28;20416;-89
2021/05/21 08:53:58;;;;;;;17.95;5.38;;;13.30;99.90;;;;;;5032135;28;20394;-87
2021/05/21 08:56:25;;;;;;;18.38;5.63;;;13.30;99.90;;;;;;5027539;28;20763;-91
2021/05/21 08:58:58;;;;;;;15.93;5.32;;;13.10;99.90;;;;;;5053311;28;20371;-88
2021/05/21 09:01:27;;;;;;;17.30;5.28;;;13.00;99.90;;;;;;5032371;28;20415;-89
2021/05/21 09:04:02;;;;;;;15.30;5.13;;;12.80;99.90;;;;;;5051490;28;20374;-88
2021/05/21 09:06:30;;;;;;;18.23;5.57;;;12.80;99.90;;;;;;5032754;28;20387;-88
2021/05/21 09:08:59;;;;;;;17.25;5.88;;;12.70;99.90;;;;;;5049892;28;20395;-90
2021/05/21 09:11:33;;;;;;;14.10;4.90;;;12.70;99.90;;;;;;5050039;28;20494;-88
2021/05/21 09:14:07;;;;;;;17.98;5.80;;;12.60;99.90;;;;;;5032425;28;20403;-89
2021/05/21 09:16:37;;;;;;;14.45;5.70;;;12.60;99.90;;;;;;5051051;28;20875;-90
2021/05/21 09:19:06;;;;;;;19.55;6.72;;;12.50;99.90;;;;;;5051503;28;20380;-88
2021/05/21 09:21:56;;;;;;;16.30;6.40;;;12.40;99.90;;;;;;5036499;28;20396;-88
2021/05/21 09:24:33;;;;;;;16.43;6.23;;;12.30;99.90;;;;;;5055358;28;20466;-88
2021/05/21 09:27:00;;;;;;;17.33;6.47;;;12.20;99.90;;;;;;5052062;28;20384;-90
2021/05/21 09:29:49;;;;;;;15.40;6.15;;;12.20;99.90;;;;;;5054359;28;20421;-90
2021/05/21 09:32:34;;;;;;;17.98;6.18;;;12.10;99.90;;;;;;5028901;28;20403;-89
2021/05/21 09:35:13;;;;;;;18.45;6.28;;;12.00;99.90;;;;;;5025809;28;20391;-89
2021/05/21 09:37:48;;;;;;;18.70;6.60;;;11.90;99.90;;;;;;5028166;28;20398;-89
2021/05/21 09:40:18;;;;;;;16.23;6.07;;;11.90;99.90;;;;;;5036616;28;20412;-89
2021/05/21 09:42:49;;;;;;;20.45;6.47;;;11.90;99.90;;;;;;5054820;28;20497;-89
2021/05/21 09:45:21;;;;;;;17.08;5.97;;;11.90;99.90;;;;;;5036426;28;20459;-89
2021/05/21 09:47:50;;;;;;;17.33;6.50;;;11.80;99.90;;;;;;5037219;28;20399;-89
2021/05/21 09:50:17;;;;;;;15.57;5.75;;;11.80;99.90;;;;;;5049551;28;20376;-89
2021/05/21 09:52:48;;;;;;;15.23;5.57;;;11.80;99.90;;;;;;5049010;28;20396;-88
2021/05/21 09:55:15;;;;;;;15.38;6.00;;;11.70;99.90;;;;;;5043708;28;20713;-92
2021/05/21 09:57:45;;;;;;;16.42;5.60;;;11.60;99.90;;;;;;5046049;28;20862;-89
2021/05/21 10:00:12;;;;;;;16.60;5.78;;;11.60;99.90;;;;;;5054489;28;20870;-89
2021/05/21 10:02:40;;;;;;;15.05;5.25;;;11.50;99.90;;;;;;5040544;28;20420;-90
2021/05/21 10:05:08;;;;;;;19.48;5.95;;;11.50;99.90;;;;;;5034671;28;20415;-91
2021/05/21 10:07:35;;;;;;;21.52;5.90;;;11.50;99.90;;;;;;5035476;28;20421;-89
2021/05/21 10:10:03;;;;;;;14.70;5.25;;;11.50;99.90;;;;;;5048768;28;20712;-85
2021/05/21 10:12:31;;;;;;;17.80;5.70;;;11.40;99.90;;;;;;5020122;28;20888;-89
2021/05/21 10:15:16;;;;;;;17.45;5.38;;;11.50;99.90;;;;;;5038235;28;20376;-86
2021/05/21 10:17:45;;;;;;;15.52;5.45;;;11.50;99.90;;;;;;5019128;28;20896;-87
2021/05/21 10:20:15;;;;;;;16.23;5.07;;;11.40;99.90;;;;;;5018786;28;20405;-88
2021/05/21 10:22:45;;;;;;;14.18;4.88;;;11.30;99.90;;;;;;5023817;28;20389;-87
2021/05/21 10:25:25;;;;;;;20.27;5.70;;;11.30;99.90;;;;;;5051582;28;20754;-89
2021/05/21 10:27:55;;;;;;;18.25;5.55;;;11.30;99.90;;;;;;5054355;28;20403;-89
2021/05/21 10:30:27;;;;;;;17.75;5.57;;;11.30;99.90;;;;;;5014803;28;20772;-89
2021/05/21 10:33:14;;;;;;;15.88;5.40;;;11.30;99.90;;;;;;5051250;28;20388;-89
2021/05/21 10:35:42;;;;;;;17.55;6.15;;;11.30;99.90;;;;;;5052928;28;20391;-87
2021/05/21 10:38:19;;;;;;;22.70;6.18;;;11.30;99.90;;;;;;5048925;28;20395;-89
2021/05/21 10:41:06;;;;;;;11.77;5.07;;;11.20;99.90;;;;;;5054894;28;20399;-89
2021/05/21 10:43:33;;;;;;;16.42;6.40;;;11.20;99.90;;;;;;5039642;28;20380;-88
2021/05/21 10:46:00;;;;;;;14.45;5.60;;;11.20;99.90;;;;;;5030381;28;20399;-90
2021/05/21 10:48:30;;;;;;;17.75;6.18;;;11.20;99.90;;;;;;5044564;28;20384;-88
2021/05/21 10:51:13;;;;;;;18.58;5.68;;;11.20;99.90;;;;;;5051633;28;20405;-88
2021/05/21 10:53:42;;;;;;;21.30;5.80;;;11.10;99.90;;;;;;5045633;28;20428;-89
2021/05/21 10:56:10;;;;;;;17.38;5.85;;;11.10;99.90;;;;;;5017269;28;20818;-88
2021/05/21 10:58:44;;;;;;;19.13;5.65;;;11.10;99.90;;;;;;5044529;28;20407;-89
2021/05/21 11:01:17;;;;;;;23.20;6.57;;;11.10;99.90;;;;;;5058788;28;20407;-88
2021/05/21 11:04:04;;;;;;;18.83;6.00;;;11.10;99.90;;;;;;5061256;28;20479;-90
2021/05/21 11:06:33;;;;;;;18.52;6.00;;;11.10;99.90;;;;;;5054963;28;20396;-89
2021/05/21 11:09:08;;;;;;;22.15;6.38;;;11.00;99.90;;;;;;5054210;28;20408;-89
2021/05/21 11:11:47;;;;;;;21.23;6.63;;;11.00;99.90;;;;;;5050753;28;20401;-89
2021/05/21 11:14:27;;;;;;;16.17;6.38;;;11.00;99.90;;;;;;5034654;28;20453;-87
2021/05/21 11:16:55;;;;;;;19.03;5.57;;;11.00;99.90;;;;;;5051733;28;20476;-89
2021/05/21 11:19:27;;;;;;;20.02;6.57;;;11.00;99.90;;;;;;5034839;28;20454;-88
2021/05/21 11:22:06;;;;;;;18.33;6.60;;;11.00;99.90;;;;;;5044387;28;20628;-89
2021/05/21 11:24:41;;;;;;;20.05;6.97;;;11.00;99.90;;;;;;5052419;28;20364;-87
2021/05/21 11:27:13;;;;;;;20.30;6.40;;;11.00;99.90;;;;;;5042993;28;20953;-88
2021/05/21 11:29:46;;;;;;;19.58;6.57;;;11.00;99.90;;;;;;5042678;28;20456;-88
2021/05/21 11:32:14;;;;;;;17.55;6.10;;;11.00;99.90;;;;;;5036458;28;20530;-89
2021/05/21 11:34:41;;;;;;;18.07;6.20;;;10.90;99.90;;;;;;5028406;28;20427;-88
2021/05/21 11:37:08;;;;;;;17.38;6.55;;;11.00;99.90;;;;;;5052221;28;20386;-88
2021/05/21 11:39:38;;;;;;;14.88;6.05;;;10.90;99.90;;;;;;5045043;28;20424;-89
2021/05/21 11:42:06;;;;;;;18.85;5.90;;;10.90;99.90;;;;;;5046367;28;20424;-88
2021/05/21 11:44:34;;;;;;;14.93;5.45;;;10.90;99.90;;;;;;5024276;28;20410;-88
2021/05/21 11:47:04;;;;;;;20.27;6.23;;;10.80;99.90;;;;;;5033811;28;20472;-88
2021/05/21 11:49:31;;;;;;;14.83;5.70;;;10.80;99.90;;;;;;5047192;28;20415;-89
2021/05/21 11:52:02;;;;;;;21.65;6.38;;;10.70;99.90;;;;;;5051100;28;20395;-89
2021/05/21 11:54:31;;;;;;;20.25;6.95;;;10.70;99.90;;;;;;5050526;28;20475;-89
2021/05/21 11:57:00;;;;;;;20.00;6.27;;;10.70;99.90;;;;;;5049685;28;20400;-89
2021/05/21 11:59:28;;;;;;;19.88;7.30;;;10.70;99.90;;;;;;5045725;28;20923;-89
2021/05/21 12:02:08;;;;;;;20.55;6.90;;;10.70;99.90;;;;;;5033276;28;20427;-87
2021/05/21 12:04:40;;;;;;;21.63;7.43;;;10.70;99.90;;;;;;5028329;28;20403;-90
2021/05/21 12:07:28;;;;;;;22.13;7.78;;;10.70;99.90;;;;;;5046752;28;21220;-90
2021/05/21 12:10:06;;;;;;;20.60;8.45;;;10.70;99.90;;;;;;5024826;28;20385;-87
2021/05/21 12:12:36;;;;;;;23.50;7.93;;;10.70;99.90;;;;;;5043809;28;20491;-90
2021/05/21 12:15:22;;;;;;;19.55;8.13;;;10.60;99.90;;;;;;5042357;28;20482;-87
2021/05/21 12:17:50;;;;;;;22.70;7.82;;;10.70;99.90;;;;;;5050565;28;20392;-86
2021/05/21 12:20:21;;;;;;;20.15;7.70;;;10.60;99.90;;;;;;5045918;28;20487;-88
2021/05/21 12:23:05;;;;;;;17.38;7.00;;;10.50;99.90;;;;;;5024312;28;21883;-87
2021/05/21 12:25:34;;;;;;;21.88;7.53;;;10.50;99.90;;;;;;5031732;28;20395;-89
2021/05/21 12:28:02;;;;;;;20.60;6.93;;;10.50;99.90;;;;;;5041867;28;20860;-89
2021/05/21 12:30:30;;;;;;;18.85;7.30;;;10.40;99.90;;;;;;5017858;28;20455;-90
2021/05/21 12:32:58;;;;;;;23.50;7.53;;;10.40;99.90;;;;;;5032095;28;20562;-90
2021/05/21 12:35:42;;;;;;;18.88;6.55;;;10.30;99.90;;;;;;5033171;28;20395;-89
2021/05/21 12:38:10;;;;;;;18.05;7.47;;;10.30;99.90;;;;;;5048643;28;20448;-88
2021/05/21 12:40:51;;;;;;;20.77;7.57;;;10.20;99.90;;;;;;5024608;28;20911;-86
2021/05/21 12:43:18;;;;;;;19.42;7.43;;;10.20;99.90;;;;;;5044700;28;20409;-89
2021/05/21 12:46:06;;;;;;;20.93;6.80;;;10.10;99.90;;;;;;5050883;28;20415;-89
2021/05/21 12:48:48;;;;;;;22.02;9.00;;;10.00;99.90;;;;;;5028667;28;20390;-89
2021/05/21 12:51:22;;;;;;;20.77;8.18;;;10.00;99.90;;;;;;5046086;28;20404;-89